Flight Track Log - Related Links

Times and Time Zones

All times are in EDT time to prevent confusion due to time zone crossing. See the JBU1205 flight status page for this flight to view local times or setup timezone preferences in your user account.

Time Position Orientation Groundspeed Altitude Reporting Facility
EDT Latitude Longitude Course Direction KTS MPH feet Rate Location/Type
Wed 09:15:52 AM 41.0833 -73.7333 237° Southwest 134 154 1,900  Level New York TRACON
Wed 09:16:58 AM 41.1000 -73.8000 288° West 184 212 3,400 2,100 Climbing New York TRACON
Wed 09:17:52 AM 41.0833 -73.8667 252° West 223 257 6,100 2,895 Climbing New York TRACON
Wed 09:18:00 AM 40.8753 -74.0663 237° Southwest  Level FlightAware Approximate
Wed 09:18:52 AM 41.0333 -73.9500 232° Southwest 269 310 8,900  Level New York TRACON
Wed 09:19:00 AM 40.8109 -74.1912 234° Southwest  Level FlightAware Approximate
Wed 09:19:46 AM 41.0000 -74.0333 242° Southwest 284 327 11,200  Level New York TRACON
Wed 09:20:00 AM 40.7441 -74.3137 234° Southwest  Level FlightAware Approximate
Wed 09:21:00 AM 40.6823 -74.4354 237° Southwest  Level FlightAware Approximate
Wed 09:22:03 AM 40.8756 -74.2344 231° Southwest 350 403 15,000  Level New York Center
Wed 09:23:05 AM 40.8078 -74.3406 230° Southwest 350 403 16,600 1,000 Climbing New York Center
Wed 09:24:03 AM 40.7461 -74.4414 231° Southwest 350 403 17,000 763 Climbing New York Center
Wed 09:25:03 AM 40.6847 -74.5447 232° Southwest 364 419 18,100 1,450 Climbing New York Center
Wed 09:26:03 AM 40.6275 -74.6347 230° Southwest 364 419 19,900 1,884 Climbing New York Center
Wed 09:27:04 AM 40.5614 -74.7431 231° Southwest 364 419 21,900 1,820 Climbing New York Center
Wed 09:28:05 AM 40.4675 -74.8111 209° Southwest 369 425 23,600 1,636 Climbing New York Center
Wed 09:29:05 AM 40.3850 -74.9072 222° Southwest 390 449 25,200 1,576 Climbing New York Center
Wed 09:30:03 AM 40.3222 -75.0258 235° Southwest 398 458 26,700 1,462 Climbing New York Center
Wed 09:31:04 AM 40.2553 -75.1497 235° Southwest 410 472 28,100 1,289 Climbing New York Center
Wed 09:32:04 AM 40.1881 -75.2758 235° Southwest 423 487 29,300 1,289 Climbing New York Center
Wed 09:33:05 AM 40.1186 -75.3961 233° Southwest 428 493 30,700 1,462 Climbing New York Center
Wed 09:34:03 AM 40.0411 -75.5103 228° Southwest 433 498 32,200 1,400 Climbing New York Center
Wed 09:35:05 AM 39.9619 -75.6161 226° Southwest 426 490 33,500 1,250 Climbing New York Center
Wed 09:36:03 AM 39.8794 -75.7403 229° Southwest 426 490 34,700 1,169 Climbing New York Center
Wed 09:37:03 AM 39.8058 -75.8539 230° Southwest 425 489 35,800 645 Climbing New York Center
Wed 09:38:04 AM 39.7342 -75.9703 231° Southwest 419 482 36,000 61 Climbing New York Center
Wed 09:40:19 AM 39.5639 -76.2347 230° Southwest 432 497 36,000  Level Washington Center
Wed 09:41:19 AM 39.4861 -76.3553 230° Southwest 432 497 36,000  Level Washington Center
Wed 09:42:19 AM 39.4103 -76.4644 228° Southwest 427 491 36,000 400 Level Washington Center
Wed 09:43:19 AM 39.3367 -76.5817 231° Southwest 427 491 36,800 850 Climbing Washington Center
Wed 09:44:19 AM 39.2628 -76.6933 230° Southwest 427 491 37,700 600 Climbing Washington Center
Wed 09:45:19 AM 39.1928 -76.8075 232° Southwest 410 472 38,000 150 Climbing Washington Center
Wed 09:46:19 AM 39.1208 -76.9186 230° Southwest 410 472 38,000  Level Washington Center
Wed 09:47:19 AM 39.0486 -77.0294 230° Southwest 415 478 38,000  Level Washington Center
Wed 09:48:20 AM 38.9642 -77.1267 222° Southwest 415 478 38,000  Level Washington Center
Wed 09:49:19 AM 38.8753 -77.2236 220° Southwest 409 471 38,000  Level Washington Center
Wed 09:50:19 AM 38.7883 -77.3175 220° Southwest 414 476 38,000  Level Washington Center
Wed 09:51:20 AM 38.7100 -77.4033 221° Southwest 414 476 38,000  Level Washington Center
Wed 09:52:19 AM 38.6231 -77.4969 220° Southwest 414 476 38,000  Level Washington Center
Wed 09:53:19 AM 38.5339 -77.5928 220° Southwest 414 476 38,000  Level Washington Center
Wed 09:54:19 AM 38.4489 -77.6886 221° Southwest 414 476 38,000  Level Washington Center
Wed 09:55:19 AM 38.3639 -77.7817 221° Southwest 414 476 38,000  Level Washington Center
Wed 09:56:19 AM 38.2767 -77.8742 220° Southwest 414 476 38,000  Level Washington Center
Wed 09:57:19 AM 38.1894 -77.9694 221° Southwest 414 476 38,000  Level Washington Center
Wed 09:58:19 AM 38.1019 -78.0617 220° Southwest 414 476 38,000  Level Washington Center
Wed 09:59:19 AM 38.0144 -78.1589 221° Southwest 414 476 38,000  Level Washington Center
Wed 10:00:19 AM 37.9292 -78.2403 217° Southwest 409 471 38,000  Level Washington Center
Wed 10:01:19 AM 37.8397 -78.3264 217° Southwest 409 471 38,000  Level Washington Center
Wed 10:02:19 AM 37.7375 -78.4200 216° Southwest 422 486 38,000  Level Washington Center
Wed 10:03:19 AM 37.6456 -78.5058 216° Southwest 422 486 38,000  Level Washington Center
Wed 10:04:19 AM 37.5539 -78.5939 217° Southwest 422 486 38,000  Level Washington Center
Wed 10:05:19 AM 37.4597 -78.6792 216° Southwest 422 486 38,000  Level Washington Center
Wed 10:06:19 AM 37.3681 -78.7642 216° Southwest 417 480 38,000  Level Washington Center
Wed 10:07:19 AM 37.2844 -78.8417 216° Southwest 417 480 38,000  Level Washington Center
Wed 10:08:19 AM 37.1944 -78.9267 217° Southwest 417 480 38,000  Level Washington Center
Wed 10:09:19 AM 37.1003 -79.0111 216° Southwest 417 480 38,000  Level Washington Center
Wed 10:10:19 AM 37.0081 -79.0981 217° Southwest 417 480 38,000  Level Washington Center
Wed 10:11:19 AM 36.9031 -79.1944 216° Southwest 417 480 38,000  Level Washington Center
Wed 10:12:19 AM 36.8128 -79.2786 217° Southwest 417 480 38,000  Level Washington Center
Wed 10:13:19 AM 36.7183 -79.3647 216° Southwest 417 480 38,000  Level Washington Center
Wed 10:14:19 AM 36.6258 -79.4508 217° Southwest 417 480 38,000  Level Washington Center
Wed 10:16:17 AM 36.4436 -79.6128 216° Southwest 426 490 38,000  Level Atlanta Center
Wed 10:17:17 AM 36.3486 -79.6978 216° Southwest 426 490 38,000  Level Atlanta Center
Wed 10:18:17 AM 36.2678 -79.7742 217° Southwest 421 484 38,000  Level Atlanta Center
Wed 10:19:17 AM 36.1706 -79.8592 215° Southwest 421 484 38,000  Level Atlanta Center
Wed 10:20:17 AM 36.0775 -79.9436 216° Southwest 421 484 38,000  Level Atlanta Center
Wed 10:21:17 AM 35.9714 -80.0131 208° Southwest 421 484 38,000  Level Atlanta Center
Wed 10:22:17 AM 35.8481 -80.0731 202° Southwest 427 491 38,000  Level Atlanta Center
Wed 10:23:17 AM 35.7372 -80.1269 202° Southwest 434 499 38,000  Level Atlanta Center
Wed 10:24:17 AM 35.6369 -80.1831 204° Southwest 434 499 38,000  Level Atlanta Center
Wed 10:25:17 AM 35.5258 -80.2367 201° Southwest 434 499 38,000  Level Atlanta Center
Wed 10:26:17 AM 35.4150 -80.2928 202° Southwest 434 499 38,000  Level Atlanta Center
Wed 10:27:17 AM 35.2936 -80.3567 203° Southwest 429 494 38,000  Level Atlanta Center
Wed 10:29:15 AM 35.0731 -80.4628 201° Southwest 451 519 38,000  Level Jacksonville Center
Wed 10:30:15 AM 34.9636 -80.5192 203° Southwest 440 506 38,000  Level Jacksonville Center
Wed 10:31:15 AM 34.8497 -80.5753 202° Southwest 435 501 38,000  Level Jacksonville Center
Wed 10:32:15 AM 34.7569 -80.6208 202° Southwest 425 489 38,000  Level Jacksonville Center
Wed 10:33:15 AM 34.6453 -80.6744 202° Southwest 425 489 38,000  Level Jacksonville Center
Wed 10:34:15 AM 34.5272 -80.7328 202° Southwest 448 516 38,000  Level Jacksonville Center
Wed 10:35:15 AM 34.4156 -80.7883 202° Southwest 438 504 38,000  Level Jacksonville Center
Wed 10:36:15 AM 34.3081 -80.8464 204° Southwest 438 504 38,000  Level Jacksonville Center
Wed 10:37:15 AM 34.2022 -80.8889 198° South 426 490 38,000  Level Jacksonville Center
Wed 10:38:15 AM 34.0928 -80.9467 204° Southwest 426 490 38,000  Level Jacksonville Center
Wed 10:39:15 AM 33.9786 -81.0017 202° Southwest 431 496 38,000  Level Jacksonville Center
Wed 10:40:15 AM 33.8647 -81.0517 200° South 438 504 38,000  Level Jacksonville Center
Wed 10:41:15 AM 33.7550 -81.1067 203° Southwest 438 504 38,000  Level Jacksonville Center
Wed 10:42:15 AM 33.6431 -81.1636 203° Southwest 433 498 38,000  Level Jacksonville Center
Wed 10:43:15 AM 33.5331 -81.2206 203° Southwest 433 498 38,000  Level Jacksonville Center
Wed 10:44:15 AM 33.4211 -81.2750 202° Southwest 433 498 38,000  Level Jacksonville Center
Wed 10:45:15 AM 33.3092 -81.3292 202° Southwest 433 498 38,000  Level Jacksonville Center
Wed 10:46:15 AM 33.1972 -81.3833 202° Southwest 433 498 38,000  Level Jacksonville Center
Wed 10:47:15 AM 33.0850 -81.4372 202° Southwest 433 498 38,000  Level Jacksonville Center
Wed 10:48:15 AM 32.9750 -81.4886 201° Southwest 433 498 38,000  Level Jacksonville Center
Wed 10:49:15 AM 32.8628 -81.5447 203° Southwest 433 498 38,000  Level Jacksonville Center
Wed 10:50:15 AM 32.7550 -81.5983 203° Southwest 433 498 38,000  Level Jacksonville Center
Wed 10:51:15 AM 32.6322 -81.6567 202° Southwest 433 498 38,000  Level Jacksonville Center
Wed 10:52:15 AM 32.5306 -81.7050 202° Southwest 434 499 38,000  Level Jacksonville Center
Wed 10:53:15 AM 32.4078 -81.7631 202° Southwest 434 499 38,000  Level Jacksonville Center
Wed 10:54:15 AM 32.2956 -81.8186 203° Southwest 434 499 38,000  Level Jacksonville Center
Wed 10:55:15 AM 32.1958 -81.8664 202° Southwest 434 499 38,000  Level Jacksonville Center
Wed 10:56:15 AM 32.0711 -81.9242 201° Southwest 434 499 38,000  Level Jacksonville Center
Wed 10:57:15 AM 31.9689 -81.9644 198° South 434 499 38,000  Level Jacksonville Center
Wed 10:58:15 AM 31.8292 -81.9806 186° South 449 517 38,000  Level Jacksonville Center
Wed 10:59:15 AM 31.7061 -81.9914 184° South 460 529 38,000  Level Jacksonville Center
Wed 11:00:15 AM 31.5914 -82.0022 185° South 466 536 38,000  Level Jacksonville Center
Wed 11:01:15 AM 31.4642 -82.0181 186° South 458 527 38,000  Level Jacksonville Center
Wed 11:02:15 AM 31.3389 -82.0267 183° South 458 527 38,000  Level Jacksonville Center
Wed 11:03:15 AM 31.2117 -82.0425 186° South 458 527 38,000  Level Jacksonville Center
Wed 11:04:15 AM 31.0822 -82.0533 184° South 458 527 38,000  Level Jacksonville Center
Wed 11:05:15 AM 30.9569 -82.0664 185° South 463 533 38,000  Level Jacksonville Center
Wed 11:06:15 AM 30.8150 -82.0775 184° South 463 533 38,000  Level Jacksonville Center
Wed 11:07:15 AM 30.6900 -82.0881 184° South 463 533 38,000  Level Jacksonville Center
Wed 11:08:15 AM 30.5647 -82.1011 185° South 458 527 38,000  Level Jacksonville Center
Wed 11:09:15 AM 30.4353 -82.1072 182° South 458 527 38,000  Level Jacksonville Center
Wed 11:10:15 AM 30.3081 -82.1178 184° South 458 527 38,000  Level Jacksonville Center
Wed 11:11:15 AM 30.1786 -82.1261 183° South 458 527 38,000  Level Jacksonville Center
Wed 11:12:15 AM 30.0469 -82.1008 171° South 468 539 38,000  Level Jacksonville Center
Wed 11:13:15 AM 29.9131 -82.0803 172° South 480 552 38,000 -350 Level Jacksonville Center
Wed 11:14:15 AM 29.7814 -82.0550 171° South 485 558 37,300 -850 Descending Jacksonville Center
Wed 11:15:15 AM 29.6478 -82.0275 170° South 485 558 36,300 -950 Descending Jacksonville Center
Wed 11:16:15 AM 29.5139 -82.0000 170° South 490 564 35,400 -650 Descending Jacksonville Center
Wed 11:17:15 AM 29.3800 -81.9728 170° South 490 564 35,000 -200 Descending Jacksonville Center
Wed 11:18:15 AM 29.2442 -81.9478 171° South 490 564 35,000  Level Jacksonville Center
Wed 11:19:15 AM 29.1231 -81.9203 169° South 490 564 35,000 -50 Level Jacksonville Center
Wed 11:20:15 AM 28.9892 -81.8933 170° South 490 564 34,900 -1,844 Descending Jacksonville Center
Wed 11:22:27 AM 28.6961 -81.8372 170° South 490 564 29,100 -2,456 Descending Miami Center
Wed 11:23:28 AM 28.5617 -81.8100 170° South 502 578 27,000 -1,450 Descending Miami Center
Wed 11:24:27 AM 28.4336 -81.7736 166° South 491 565 26,200 -1,462 Descending Miami Center
Wed 11:25:27 AM 28.3075 -81.7400 167° South 481 554 24,100 -1,100 Descending Miami Center
Wed 11:26:27 AM 28.1939 -81.7044 165° South 451 519 24,000 -550 Descending Miami Center
Wed 11:27:27 AM 28.0614 -81.6728 168° South 441 507 23,000 -1,350 Descending Miami Center
Wed 11:28:27 AM 27.9542 -81.6964 191° South 412 474 21,300 -2,000 Descending Miami Center
Wed 11:29:27 AM 27.8447 -81.7247 193° South 406 467 19,000 -1,850 Descending Miami Center
Wed 11:30:27 AM 27.7422 -81.7319 184° South 389 448 17,600 -1,200 Descending Miami Center
Wed 11:31:27 AM 27.6392 -81.6972 163° South 379 436 16,600 -1,050 Descending Miami Center
Wed 11:32:27 AM 27.5378 -81.6647 164° South 385 443 15,500 -1,100 Descending Miami Center
Wed 11:33:27 AM 27.4389 -81.6278 162° South 380 437 14,400 -1,100 Descending Miami Center
Wed 11:34:27 AM 27.3397 -81.5958 164° South 375 432 13,300 -1,100 Descending Miami Center
Wed 11:35:27 AM 27.2428 -81.5614 162° South 370 426 12,200 -1,100 Descending Miami Center
Wed 11:36:27 AM 27.1500 -81.5297 163° South 365 420 11,100 -1,100 Descending Miami Center
Wed 11:37:27 AM 27.0550 -81.4978 163° South 359 413 10,000 -550 Descending Miami Center
Wed 11:38:27 AM 26.9786 -81.4669 160° South 339 390 10,000  Level Miami Center
Wed 11:39:27 AM 26.8883 -81.4214 156° South 326 375 10,000 -500 Level Miami Center
Wed 11:40:27 AM 26.8122 -81.3833 156° South 313 360 9,000 -1,150 Descending Miami Center
Wed 11:41:27 AM 26.7347 -81.3897 184° South 285 328 7,700 -1,300 Descending Miami Center
Wed 11:42:27 AM 26.6675 -81.4033 190° South 277 319 6,400 -1,400 Descending Miami Center
Wed 11:43:27 AM 26.6192 -81.4758 233° Southwest 254 292 4,900 -1,190 Descending Miami Center
Wed 11:44:28 AM 26.5756 -81.5392 232° Southwest 259 298 4,000 -885 Descending Miami Center
Wed 11:46:00 AM 26.5411 -81.7280 197° South  Level Estimated
Wed 11:53:00 AM 26.5333 -81.7500 318° Northwest  Level FlightAware Approximate
Wed 11:54:00 AM 26.5362 -81.7552 318° Northwest  Level Estimated
Wed 11:55:00 AM 26.5333 -81.7500 318° Northwest  Level FlightAware Approximate
Wed 11:56:00 AM 26.5362 -81.7552 318° Northwest  Level Estimated
Wed 11:57:00 AM 26.5333 -81.7500 318° Northwest  Level FlightAware Approximate
Wed 11:58:00 AM 26.5362 -81.7552 318° Northwest  Level Estimated
Wed 11:59:00 AM 26.5333 -81.7500 318° Northwest  Level FlightAware Approximate
Wed 12:00:00 PM 26.5362 -81.7552 318° Northwest  Level Estimated
Wed 12:01:00 PM 26.5333 -81.7500 318° Northwest  Level FlightAware Approximate
Wed 12:02:00 PM 26.5362 -81.7552 318° Northwest  Level Estimated
Wed 12:03:00 PM 26.5333 -81.7500 318° Northwest  Level FlightAware Approximate
Wed 12:04:00 PM 26.5362 -81.7552 318° Northwest  Level Estimated

Login

Don't have an account? Register now (free) for customized features, flight alerts, and more!